Time,TemperatureF,DewpointF,PressureIn,WindDirection,WindDirectionDegrees,WindSpeedMPH,WindSpeedGustMPH,Humidity,HourlyPrecipIn,Conditions,Clouds,dailyrainin,SoftwareType,DateUTC
2013-07-13 00:00:00,72.3,60.3,30.06,East,90,0.8,0.8,66,0.00,,,0.00,,2013-07-12 22:00:00,
2013-07-13 00:05:00,72.5,59.9,30.03,East,90,0.0,0.0,65,0.00,,,0.00,,2013-07-12 22:05:00,
2013-07-13 00:15:00,72.5,59.5,30.06,North,0,0.0,1.3,64,0.00,,,0.00,,2013-07-12 22:15:00,
2013-07-13 00:20:00,72.7,59.7,30.06,North,0,0.4,0.0,64,0.00,,,0.00,,2013-07-12 22:20:00,
2013-07-13 08:48:00,77.7,59.2,30.06,East,90,0.0,0.0,53,0.00,,,0.00,,2013-07-13 06:48:00,
2013-07-13 08:53:00,78.4,59.7,30.03,ESE,112,0.0,0.8,53,0.00,,,0.00,,2013-07-13 06:53:00,
2013-07-13 08:58:00,78.3,59.2,30.03,SE,135,0.4,0.4,52,0.00,,,0.00,,2013-07-13 06:58:00,
2013-07-13 09:03:00,78.4,59.2,30.06,SE,135,0.0,0.4,52,0.00,,,0.00,,2013-07-13 07:03:00,
2013-07-13 09:08:00,78.8,59.0,30.06,SE,135,0.0,0.0,51,0.00,,,0.00,,2013-07-13 07:08:00,
2013-07-13 09:13:00,78.8,59.0,30.06,SE,135,0.0,0.0,51,0.00,,,0.00,,2013-07-13 07:13:00,
2013-07-13 09:18:00,79.5,60.3,30.06,SSE,157,0.0,0.0,52,0.00,,,0.00,,2013-07-13 07:18:00,
2013-07-13 09:23:00,79.5,61.3,30.06,South,180,0.4,0.0,54,0.00,,,0.00,,2013-07-13 07:23:00,
2013-07-13 09:28:00,79.5,62.4,30.06,South,180,0.4,0.8,56,0.00,,,0.00,,2013-07-13 07:28:00,
2013-07-13 09:33:00,79.9,62.8,30.06,SSW,202,0.4,0.4,56,0.00,,,0.00,,2013-07-13 07:33:00,
2013-07-13 09:38:00,80.1,62.8,30.06,South,180,0.4,2.2,56,0.00,,,0.00,,2013-07-13 07:38:00,
2013-07-13 09:43:00,80.4,63.1,30.03,WSW,247,0.8,2.2,56,0.00,,,0.00,,2013-07-13 07:43:00,
2013-07-13 09:48:00,80.1,62.8,30.03,SW,225,0.8,3.5,56,0.00,,,0.00,,2013-07-13 07:48:00,
2013-07-13 09:53:00,79.9,62.8,30.06,WSW,247,1.3,2.6,56,0.00,,,0.00,,2013-07-13 07:53:00,
2013-07-13 09:58:00,79.9,62.8,30.06,South,180,0.4,2.2,56,0.00,,,0.00,,2013-07-13 07:58:00,
2013-07-13 10:03:00,80.2,62.6,30.03,WSW,247,0.8,1.7,55,0.00,,,0.00,,2013-07-13 08:03:00,
2013-07-13 10:08:00,80.4,62.6,30.03,WSW,247,0.8,0.0,55,0.00,,,0.00,,2013-07-13 08:08:00,
2013-07-13 10:13:00,80.4,61.7,30.03,West,270,2.2,3.1,53,0.00,,,0.00,,2013-07-13 08:13:00,
2013-07-13 10:18:00,80.1,61.3,30.03,South,180,1.3,1.3,53,0.00,,,0.00,,2013-07-13 08:18:00,
2013-07-13 10:23:00,80.2,61.0,30.06,WSW,247,1.7,4.0,52,0.00,,,0.00,,2013-07-13 08:23:00,
2013-07-13 10:28:00,80.4,61.2,30.06,WSW,247,2.2,2.2,52,0.00,,,0.00,,2013-07-13 08:28:00,
2013-07-13 10:33:00,80.6,61.3,30.06,SW,225,0.8,0.0,52,0.00,,,0.00,,2013-07-13 08:33:00,
2013-07-13 10:38:00,81.1,61.7,30.06,South,180,1.3,0.0,52,0.00,,,0.00,,2013-07-13 08:38:00,
2013-07-13 10:43:00,81.1,61.7,30.06,South,180,0.8,2.6,52,0.00,,,0.00,,2013-07-13 08:43:00,
2013-07-13 10:48:00,81.0,61.0,30.06,South,180,2.2,2.6,51,0.00,,,0.00,,2013-07-13 08:48:00,
2013-07-13 10:53:00,81.0,61.5,30.06,WSW,247,0.8,1.3,52,0.00,,,0.00,,2013-07-13 08:53:00,
2013-07-13 10:58:00,81.5,61.5,30.06,WSW,247,0.8,2.2,51,0.00,,,0.00,,2013-07-13 08:58:00,
2013-07-13 11:03:00,82.0,62.1,30.06,South,180,1.3,1.3,51,0.00,,,0.00,,2013-07-13 09:03:00,
2013-07-13 11:08:00,82.2,61.7,30.06,SSW,202,0.8,0.8,50,0.00,,,0.00,,2013-07-13 09:08:00,
2013-07-13 11:13:00,82.6,61.9,30.06,SSW,202,1.3,1.7,50,0.00,,,0.00,,2013-07-13 09:13:00,
2013-07-13 11:18:00,82.2,61.7,30.06,SW,225,0.8,2.6,50,0.00,,,0.00,,2013-07-13 09:18:00,
2013-07-13 11:23:00,82.8,62.1,30.06,West,270,0.8,1.3,50,0.00,,,0.00,,2013-07-13 09:23:00,
2013-07-13 11:28:00,82.8,62.1,30.06,SSW,202,1.7,5.8,50,0.00,,,0.00,,2013-07-13 09:28:00,
2013-07-13 11:33:00,82.9,62.2,30.03,West,270,3.1,3.1,50,0.00,,,0.00,,2013-07-13 09:33:00,
2013-07-13 11:38:00,82.4,61.9,30.03,SE,135,0.8,1.3,50,0.00,,,0.00,,2013-07-13 09:38:00,
2013-07-13 11:43:00,82.8,61.5,30.03,SW,225,2.6,6.7,49,0.00,,,0.00,,2013-07-13 09:43:00,
2013-07-13 11:48:00,82.6,61.9,30.03,SE,135,2.6,3.5,50,0.00,,,0.00,,2013-07-13 09:48:00,
2013-07-13 11:53:00,83.7,63.5,30.06,SSE,157,0.4,1.3,51,0.00,,,0.00,,2013-07-13 09:53:00,
2013-07-13 11:58:00,83.7,61.9,30.06,SE,135,2.2,2.6,48,0.00,,,0.00,,2013-07-13 09:58:00,
2013-07-13 12:03:00,84.6,63.1,30.06,ESE,112,0.4,2.6,49,0.00,,,0.00,,2013-07-13 10:03:00,
2013-07-13 12:08:00,84.2,62.2,30.06,ESE,112,2.6,2.6,48,0.00,,,0.00,,2013-07-13 10:08:00,
2013-07-13 12:13:00,84.9,63.5,30.03,SW,225,0.8,1.3,49,0.00,,,0.00,,2013-07-13 10:13:00,
2013-07-13 12:18:00,85.3,63.3,30.03,South,180,1.3,3.5,48,0.00,,,0.00,,2013-07-13 10:18:00,
2013-07-13 12:23:00,85.5,63.5,30.06,SSW,202,2.2,4.4,48,0.00,,,0.00,,2013-07-13 10:23:00,
2013-07-13 12:28:00,85.5,63.5,30.06,NW,315,0.0,0.4,48,0.00,,,0.00,,2013-07-13 10:28:00,
2013-07-13 12:33:00,85.5,64.0,30.06,SW,225,1.7,2.2,49,0.00,,,0.00,,2013-07-13 10:33:00,
2013-07-13 12:38:00,85.1,64.2,30.06,SW,225,1.7,4.0,50,0.00,,,0.00,,2013-07-13 10:38:00,
2013-07-13 12:43:00,84.9,64.8,30.03,WSW,247,2.6,4.0,51,0.00,,,0.00,,2013-07-13 10:43:00,
2013-07-13 12:48:00,84.9,64.8,30.03,WSW,247,2.6,4.0,51,0.00,,,0.00,,2013-07-13 10:48:00,
2013-07-13 12:53:00,85.6,65.3,30.03,West,270,1.7,4.0,51,0.00,,,0.00,,2013-07-13 10:53:00,
2013-07-13 12:58:00,85.5,65.7,30.03,WSW,247,1.7,1.7,52,0.00,,,0.00,,2013-07-13 10:58:00,
2013-07-13 13:03:00,85.3,65.7,30.03,South,180,4.0,4.0,52,0.00,,,0.00,,2013-07-13 11:03:00,
2013-07-13 13:08:00,84.9,65.8,30.03,South,180,2.6,4.4,53,0.00,,,0.00,,2013-07-13 11:08:00,
2013-07-13 13:13:00,84.6,66.0,30.03,SSW,202,2.2,3.5,54,0.00,,,0.00,,2013-07-13 11:13:00,
2013-07-13 13:18:00,84.6,66.6,30.03,SE,135,2.2,2.6,55,0.00,,,0.00,,2013-07-13 11:18:00,
2013-07-13 13:23:00,85.3,66.7,30.03,South,180,2.6,2.6,54,0.00,,,0.00,,2013-07-13 11:23:00,
2013-07-13 13:28:00,85.8,66.6,30.03,SW,225,2.2,5.8,53,0.00,,,0.00,,2013-07-13 11:28:00,
2013-07-13 13:33:00,85.6,65.8,30.03,SSW,202,2.6,4.0,52,0.00,,,0.00,,2013-07-13 11:33:00,
2013-07-13 13:38:00,85.1,66.0,30.03,SW,225,3.1,3.1,53,0.00,,,0.00,,2013-07-13 11:38:00,
2013-07-13 13:43:00,85.3,66.2,30.03,SSW,202,1.7,3.5,53,0.00,,,0.00,,2013-07-13 11:43:00,
2013-07-13 13:48:00,84.7,65.7,30.03,SW,225,3.1,3.1,53,0.00,,,0.00,,2013-07-13 11:48:00,
2013-07-13 13:53:00,85.3,65.7,30.03,SW,225,2.6,3.5,52,0.00,,,0.00,,2013-07-13 11:53:00,
2013-07-13 13:58:00,85.1,64.8,30.03,SW,225,3.1,5.3,51,0.00,,,0.00,,2013-07-13 11:58:00,
2013-07-13 14:03:00,84.9,64.8,30.03,West,270,4.0,4.4,51,0.00,,,0.00,,2013-07-13 12:03:00,
2013-07-13 14:08:00,85.1,65.5,30.03,SSW,202,4.0,6.2,52,0.00,,,0.00,,2013-07-13 12:08:00,
2013-07-13 14:13:00,85.1,65.5,30.03,SW,225,2.6,4.4,52,0.00,,,0.00,,2013-07-13 12:13:00,
2013-07-13 14:18:00,85.5,65.1,30.03,WSW,247,4.4,5.8,51,0.00,,,0.00,,2013-07-13 12:18:00,
2013-07-13 14:23:00,85.1,64.8,30.03,SW,225,3.5,7.6,51,0.00,,,0.00,,2013-07-13 12:23:00,
2013-07-13 14:28:00,85.3,64.9,30.03,SSE,157,2.6,2.6,51,0.00,,,0.00,,2013-07-13 12:28:00,
2013-07-13 14:33:00,85.3,64.9,30.03,South,180,3.5,4.4,51,0.00,,,0.00,,2013-07-13 12:33:00,
2013-07-13 14:38:00,85.6,65.8,30.03,South,180,3.5,4.4,52,0.00,,,0.00,,2013-07-13 12:38:00,
2013-07-13 14:43:00,84.9,64.8,30.03,SSE,157,5.3,8.5,51,0.00,,,0.00,,2013-07-13 12:43:00,
2013-07-13 14:48:00,85.3,64.9,30.03,SSE,157,2.6,4.4,51,0.00,,,0.00,,2013-07-13 12:48:00,
2013-07-13 14:53:00,85.1,64.8,30.03,South,180,4.0,4.4,51,0.00,,,0.00,,2013-07-13 12:53:00,
2013-07-13 14:58:00,85.1,64.8,30.06,SSW,202,3.5,4.0,51,0.00,,,0.00,,2013-07-13 12:58:00,
2013-07-13 15:03:00,84.4,64.8,30.06,South,180,4.4,4.4,52,0.00,,,0.00,,2013-07-13 13:03:00,
2013-07-13 15:08:00,84.7,64.6,30.03,SSW,202,4.0,5.8,51,0.00,,,0.00,,2013-07-13 13:08:00,
2013-07-13 15:13:00,84.6,64.9,30.03,South,180,2.6,2.6,52,0.00,,,0.00,,2013-07-13 13:13:00,
2013-07-13 15:18:00,84.7,64.6,30.03,West,270,3.5,6.2,51,0.00,,,0.00,,2013-07-13 13:18:00,
2013-07-13 15:23:00,84.9,64.8,30.03,WNW,292,5.8,5.8,51,0.00,,,0.00,,2013-07-13 13:23:00,
2013-07-13 15:28:00,84.4,64.2,30.03,WSW,247,3.5,5.3,51,0.00,,,0.00,,2013-07-13 13:28:00,
2013-07-13 15:33:00,84.6,65.5,30.03,SW,225,4.4,6.7,53,0.00,,,0.00,,2013-07-13 13:33:00,
2013-07-13 15:38:00,83.7,65.7,30.03,SSW,202,4.9,4.9,55,0.00,,,0.00,,2013-07-13 13:38:00,
2013-07-13 15:43:00,84.0,66.0,30.03,SSW,202,4.0,8.5,55,0.00,,,0.00,,2013-07-13 13:43:00,
2013-07-13 15:48:00,84.0,66.6,30.03,SW,225,4.9,7.6,56,0.00,,,0.00,,2013-07-13 13:48:00,
2013-07-13 15:53:00,84.0,66.6,30.03,SSW,202,1.7,3.5,56,0.00,,,0.00,,2013-07-13 13:53:00,
2013-07-13 15:58:00,83.8,65.8,30.03,SE,135,3.5,3.5,55,0.00,,,0.00,,2013-07-13 13:58:00,
2013-07-13 16:03:00,84.2,65.7,30.03,SSW,202,2.6,5.8,54,0.00,,,0.00,,2013-07-13 14:03:00,
2013-07-13 16:08:00,84.6,66.6,30.03,SW,225,2.6,6.7,55,0.00,,,0.00,,2013-07-13 14:08:00,
2013-07-13 16:13:00,84.7,66.7,30.03,SE,135,3.5,3.5,55,0.00,,,0.00,,2013-07-13 14:13:00,
2013-07-13 16:18:00,83.5,66.6,30.03,SSW,202,4.0,6.7,57,0.00,,,0.00,,2013-07-13 14:18:00,
2013-07-13 16:23:00,82.8,65.8,30.03,South,180,2.6,2.6,57,0.00,,,0.00,,2013-07-13 14:23:00,
2013-07-13 16:28:00,82.9,66.6,30.03,SW,225,3.1,6.7,58,0.00,,,0.00,,2013-07-13 14:28:00,
2013-07-13 16:33:00,82.9,66.6,30.03,South,180,2.6,4.4,58,0.00,,,0.00,,2013-07-13 14:33:00,
2013-07-13 16:38:00,82.9,67.1,30.03,West,270,2.6,3.5,59,0.00,,,0.00,,2013-07-13 14:38:00,
2013-07-13 16:43:00,82.4,66.6,30.03,SW,225,3.5,6.7,59,0.00,,,0.00,,2013-07-13 14:43:00,
2013-07-13 16:48:00,82.4,66.6,30.03,South,180,2.2,2.2,59,0.00,,,0.00,,2013-07-13 14:48:00,
2013-07-13 16:53:00,82.6,66.7,30.03,SW,225,3.5,5.8,59,0.00,,,0.00,,2013-07-13 14:53:00,
2013-07-13 16:58:00,82.8,66.4,30.03,WSW,247,2.2,4.4,58,0.00,,,0.00,,2013-07-13 14:58:00,
2013-07-13 17:03:00,82.4,65.5,30.03,SW,225,2.2,3.1,57,0.00,,,0.00,,2013-07-13 15:03:00,
2013-07-13 17:08:00,82.4,66.0,30.00,WSW,247,0.8,1.7,58,0.00,,,0.00,,2013-07-13 15:08:00,
2013-07-13 17:13:00,82.4,66.6,30.00,SSW,202,1.7,2.6,59,0.00,,,0.00,,2013-07-13 15:13:00,
2013-07-13 17:18:00,82.4,66.6,30.03,South,180,3.1,4.0,59,0.00,,,0.00,,2013-07-13 15:18:00,
2013-07-13 17:23:00,82.4,67.1,30.03,West,270,3.5,3.5,60,0.00,,,0.00,,2013-07-13 15:23:00,
2013-07-13 17:28:00,82.4,67.1,30.03,SSW,202,1.3,2.6,60,0.00,,,0.00,,2013-07-13 15:28:00,
2013-07-13 17:33:00,82.4,66.6,30.03,SSW,202,3.1,3.1,59,0.00,,,0.00,,2013-07-13 15:33:00,
2013-07-13 17:38:00,82.8,67.3,30.03,SSW,202,1.7,3.5,60,0.00,,,0.00,,2013-07-13 15:38:00,
2013-07-13 17:43:00,82.8,66.9,30.03,SW,225,1.7,2.2,59,0.00,,,0.00,,2013-07-13 15:43:00,
2013-07-13 17:48:00,83.1,67.3,30.00,WSW,247,1.7,4.0,59,0.00,,,0.00,,2013-07-13 15:48:00,
2013-07-13 17:53:00,82.9,66.0,30.00,SW,225,2.2,2.2,57,0.00,,,0.00,,2013-07-13 15:53:00,
2013-07-13 17:58:00,82.8,65.8,30.00,SSW,202,1.3,3.1,57,0.00,,,0.00,,2013-07-13 15:58:00,
2013-07-13 18:03:00,83.1,65.7,30.00,WSW,247,1.7,5.3,56,0.00,,,0.00,,2013-07-13 16:03:00,
2013-07-13 18:08:00,83.1,65.7,30.03,SSW,202,1.3,1.3,56,0.00,,,0.00,,2013-07-13 16:08:00,
2013-07-13 18:13:00,83.1,65.7,30.03,WSW,247,1.3,3.1,56,0.00,,,0.00,,2013-07-13 16:13:00,
2013-07-13 18:18:00,83.3,64.8,30.00,WSW,247,2.2,4.9,54,0.00,,,0.00,,2013-07-13 16:18:00,
2013-07-13 18:23:00,82.9,64.9,30.00,South,180,1.3,2.2,55,0.00,,,0.00,,2013-07-13 16:23:00,
2013-07-13 18:28:00,83.1,64.6,30.00,SW,225,1.3,1.3,54,0.00,,,0.00,,2013-07-13 16:28:00,
2013-07-13 18:33:00,83.1,64.6,30.00,South,180,0.8,3.5,54,0.00,,,0.00,,2013-07-13 16:33:00,
2013-07-13 18:38:00,83.1,64.6,30.00,SW,225,0.8,1.7,54,0.00,,,0.00,,2013-07-13 16:38:00,
2013-07-13 18:43:00,83.1,64.0,30.00,SW,225,1.7,2.6,53,0.00,,,0.00,,2013-07-13 16:43:00,
2013-07-13 18:48:00,82.6,63.7,30.00,WSW,247,1.3,2.6,53,0.00,,,0.00,,2013-07-13 16:48:00,
2013-07-13 18:53:00,81.9,63.5,30.00,SSW,202,1.7,1.7,54,0.00,,,0.00,,2013-07-13 16:53:00,
2013-07-13 18:58:00,81.3,63.0,30.00,West,270,1.3,1.3,54,0.00,,,0.00,,2013-07-13 16:58:00,
2013-07-13 19:03:00,81.0,63.1,30.00,SW,225,1.3,3.1,55,0.00,,,0.00,,2013-07-13 17:03:00,
2013-07-13 19:08:00,80.6,63.3,30.00,WSW,247,2.2,3.1,56,0.00,,,0.00,,2013-07-13 17:08:00,
2013-07-13 19:13:00,80.1,62.8,30.00,South,180,0.8,2.6,56,0.00,,,0.00,,2013-07-13 17:13:00,
2013-07-13 19:18:00,79.9,63.1,30.00,South,180,0.4,1.7,57,0.00,,,0.00,,2013-07-13 17:18:00,
2013-07-13 19:23:00,79.7,63.0,30.00,SW,225,0.8,0.8,57,0.00,,,0.00,,2013-07-13 17:23:00,
2013-07-13 19:28:00,79.9,63.1,30.03,WSW,247,0.8,2.6,57,0.00,,,0.00,,2013-07-13 17:28:00,
2013-07-13 19:33:00,79.9,63.1,30.03,SSW,202,1.3,2.6,57,0.00,,,0.00,,2013-07-13 17:33:00,
2013-07-13 19:38:00,80.1,63.3,30.03,South,180,1.7,1.7,57,0.00,,,0.00,,2013-07-13 17:38:00,
2013-07-13 19:43:00,79.9,62.8,30.03,WSW,247,2.6,2.6,56,0.00,,,0.00,,2013-07-13 17:43:00,
2013-07-13 19:48:00,79.5,62.4,30.03,SW,225,1.7,2.2,56,0.00,,,0.00,,2013-07-13 17:48:00,
2013-07-13 19:53:00,79.5,62.4,30.03,South,180,0.8,1.7,56,0.00,,,0.00,,2013-07-13 17:53:00,
2013-07-13 19:58:00,79.2,62.6,30.00,South,180,0.8,0.8,57,0.00,,,0.00,,2013-07-13 17:58:00,
2013-07-13 20:03:00,79.0,62.4,30.00,WSW,247,0.4,2.2,57,0.00,,,0.00,,2013-07-13 18:03:00,
2013-07-13 20:08:00,78.6,62.1,30.00,South,180,0.0,0.8,57,0.00,,,0.00,,2013-07-13 18:08:00,
2013-07-13 20:13:00,78.6,62.1,30.00,South,180,0.0,0.4,57,0.00,,,0.00,,2013-07-13 18:13:00,
2013-07-13 20:18:00,78.4,62.4,30.03,South,180,0.0,0.0,58,0.00,,,0.00,,2013-07-13 18:18:00,
2013-07-13 20:28:00,77.9,62.2,30.00,West,270,0.4,0.0,59,0.00,,,0.00,,2013-07-13 18:28:00,
2013-07-13 20:33:00,77.7,62.2,30.00,SW,225,0.4,1.3,59,0.00,,,0.00,,2013-07-13 18:33:00,
2013-07-13 20:38:00,77.4,62.2,30.00,WSW,247,0.4,1.7,60,0.00,,,0.00,,2013-07-13 18:38:00,
2013-07-13 20:43:00,77.2,62.1,30.00,SW,225,0.0,0.0,60,0.00,,,0.00,,2013-07-13 18:43:00,
2013-07-13 20:48:00,76.8,61.7,30.03,SW,225,0.0,0.0,60,0.00,,,0.00,,2013-07-13 18:48:00,
2013-07-13 20:53:00,76.6,61.7,30.03,SW,225,0.0,0.0,60,0.00,,,0.00,,2013-07-13 18:53:00,
2013-07-13 20:58:00,76.5,61.5,30.03,SW,225,0.0,0.0,60,0.00,,,0.00,,2013-07-13 18:58:00,
2013-07-13 21:03:00,76.1,61.5,30.03,SW,225,0.0,0.0,61,0.00,,,0.00,,2013-07-13 19:03:00,
2013-07-13 21:08:00,75.9,61.3,30.03,SW,225,0.0,0.0,61,0.00,,,0.00,,2013-07-13 19:08:00,
2013-07-13 21:18:00,75.6,61.2,30.03,West,270,0.0,0.0,61,0.00,,,0.00,,2013-07-13 19:18:00,
2013-07-13 21:23:00,75.4,61.3,30.03,West,270,0.0,0.0,62,0.00,,,0.00,,2013-07-13 19:23:00,
2013-07-13 21:28:00,75.2,61.2,30.03,West,270,0.0,0.0,62,0.00,,,0.00,,2013-07-13 19:28:00,
2013-07-13 21:33:00,75.2,61.2,30.03,West,270,0.0,0.0,62,0.00,,,0.00,,2013-07-13 19:33:00,
2013-07-13 21:38:00,75.0,61.5,30.03,West,270,0.0,0.0,63,0.00,,,0.00,,2013-07-13 19:38:00,
2013-07-13 21:43:00,74.7,61.2,30.03,West,270,0.0,0.0,63,0.00,,,0.00,,2013-07-13 19:43:00,
2013-07-13 21:48:00,74.7,61.5,30.06,West,270,0.0,0.0,64,0.00,,,0.00,,2013-07-13 19:48:00,
2013-07-13 21:53:00,74.5,61.3,30.06,West,270,0.0,0.0,64,0.00,,,0.00,,2013-07-13 19:53:00,
2013-07-13 21:58:00,74.3,61.7,30.03,NW,315,0.8,1.3,65,0.00,,,0.00,,2013-07-13 19:58:00,
2013-07-13 22:03:00,74.1,61.5,30.03,NW,315,0.0,0.0,65,0.00,,,0.00,,2013-07-13 20:03:00,
2013-07-13 22:08:00,74.1,61.5,30.03,North,0,0.0,0.0,65,0.00,,,0.00,,2013-07-13 20:08:00,
2013-07-13 22:13:00,73.9,61.7,30.03,North,0,0.0,0.0,66,0.00,,,0.00,,2013-07-13 20:13:00,
2013-07-13 22:18:00,73.8,61.5,30.03,North,0,0.0,0.0,66,0.00,,,0.00,,2013-07-13 20:18:00,
2013-07-13 22:23:00,73.6,61.3,30.03,North,0,0.0,0.0,66,0.00,,,0.00,,2013-07-13 20:23:00,
2013-07-13 22:28:00,73.6,61.9,30.06,North,0,0.0,0.0,67,0.00,,,0.00,,2013-07-13 20:28:00,
2013-07-13 22:33:00,73.2,61.5,30.06,North,0,0.0,0.0,67,0.00,,,0.00,,2013-07-13 20:33:00,
2013-07-13 22:38:00,73.2,61.9,30.03,North,0,0.0,0.0,68,0.00,,,0.00,,2013-07-13 20:38:00,
2013-07-13 22:43:00,73.2,61.9,30.03,North,0,0.0,0.0,68,0.00,,,0.00,,2013-07-13 20:43:00,
2013-07-13 22:48:00,73.2,62.4,30.03,WNW,292,0.0,0.0,69,0.00,,,0.00,,2013-07-13 20:48:00,
2013-07-13 22:53:00,73.2,62.8,30.03,NW,315,0.0,0.0,70,0.00,,,0.00,,2013-07-13 20:53:00,
2013-07-13 22:58:00,73.0,62.6,30.03,NW,315,0.0,0.0,70,0.00,,,0.00,,2013-07-13 20:58:00,
2013-07-13 23:03:00,72.9,62.4,30.03,NW,315,0.0,0.0,70,0.00,,,0.00,,2013-07-13 21:03:00,
2013-07-13 23:08:00,72.7,62.6,30.03,NW,315,0.0,0.0,71,0.00,,,0.00,,2013-07-13 21:08:00,
2013-07-13 23:13:00,72.5,62.4,30.03,North,0,0.0,0.0,71,0.00,,,0.00,,2013-07-13 21:13:00,
2013-07-13 23:18:00,72.3,62.2,30.03,North,0,0.0,0.0,71,0.00,,,0.00,,2013-07-13 21:18:00,
2013-07-13 23:23:00,72.1,62.1,30.03,North,0,0.0,0.0,71,0.00,,,0.00,,2013-07-13 21:23:00,
2013-07-13 23:28:00,72.1,62.1,30.03,North,0,0.0,0.0,71,0.00,,,0.00,,2013-07-13 21:28:00,
2013-07-13 23:33:00,72.0,62.4,30.03,North,0,0.0,0.0,72,0.00,,,0.00,,2013-07-13 21:33:00,
2013-07-13 23:38:00,72.0,62.8,30.03,North,0,0.0,0.0,73,0.00,,,0.00,,2013-07-13 21:38:00,
2013-07-13 23:43:00,72.0,63.1,30.03,WNW,292,0.0,0.0,74,0.00,,,0.00,,2013-07-13 21:43:00,
2013-07-13 23:48:00,72.0,63.1,30.03,West,270,0.0,0.0,74,0.00,,,0.00,,2013-07-13 21:48:00,
2013-07-13 23:53:00,72.0,63.5,30.03,NW,315,0.0,0.0,75,0.00,,,0.00,,2013-07-13 21:53:00,
2013-07-13 23:58:00,71.8,63.0,30.03,North,0,0.0,0.0,74,0.00,,,0.00,,2013-07-13 21:58:00,